Terminal Aerodrome Forecast
Issued by NWS

Home | Current Version | Previous Version | Text Only | Print | Product List | Glossary On
Versions: 1 2 3 4 5 6 7 8 9 10 11 12 13 14 15 16 17 18
000
FTUS46 KSEW 031137
TAFHQM
TAF
KHQM 031137Z 0312/0412 28003KT 5SM BR OVC004
      TEMPO 0313/0316 1SM BR OVC003
     FM031700 23006KT 5SM BR SCT006
     FM031800 23006KT 6SM HZ SKC
     FM040700 24007KT 2SM BR OVC005=

USA.gov is the U.S. government's official web portal to all federal, state and local government web resources and services.